createdAt,value
2018-09-26T00:00:25.350Z,18.1
2018-09-26T00:01:15.113Z,18
2018-09-26T00:02:04.088Z,18
2018-09-26T00:02:54.650Z,18
2018-09-26T00:03:44.980Z,18
2018-09-26T00:04:34.570Z,18.1
2018-09-26T00:05:25.215Z,18
2018-09-26T00:06:14.632Z,18
2018-09-26T00:07:05.783Z,18
2018-09-26T00:07:55.476Z,18
2018-09-26T00:08:45.362Z,18
2018-09-26T00:09:36.562Z,18
2018-09-26T00:10:25.977Z,18
2018-09-26T00:11:15.264Z,18
2018-09-26T00:12:06.344Z,18
2018-09-26T00:12:56.184Z,18
2018-09-26T00:13:45.713Z,17.9
2018-09-26T00:14:36.002Z,18
2018-09-26T00:15:26.178Z,18
2018-09-26T00:16:16.226Z,18
2018-09-26T00:17:05.967Z,18
2018-09-26T00:17:55.984Z,18
2018-09-26T00:18:46.169Z,18
2018-09-26T00:19:36.411Z,18
2018-09-26T00:20:25.431Z,18
2018-09-26T00:21:16.131Z,18
2018-09-26T00:22:06.056Z,17.9
2018-09-26T00:22:55.906Z,17.9
2018-09-26T00:23:46.163Z,18
2018-09-26T00:24:35.789Z,17.9
2018-09-26T00:25:26.904Z,17.9
2018-09-26T00:26:16.536Z,17.9
2018-09-26T00:27:06.476Z,18
2018-09-26T00:27:56.278Z,17.9
2018-09-26T00:28:47.456Z,18
2018-09-26T00:29:37.503Z,17.9
2018-09-26T00:30:27.594Z,18
2018-09-26T00:31:17.669Z,17.9
2018-09-26T00:32:06.913Z,17.9
2018-09-26T00:32:56.641Z,17.9
2018-09-26T00:33:47.558Z,17.9
2018-09-26T00:34:37.363Z,17.9
2018-09-26T00:35:27.671Z,17.9
2018-09-26T00:36:19.397Z,17.9
2018-09-26T00:55:30.950Z,17.9
2018-09-26T00:56:21.452Z,17.9
2018-09-26T00:57:10.472Z,17.9
2018-09-26T00:58:00.479Z,17.9
2018-09-26T00:58:50.632Z,17.9
2018-09-26T00:59:41.177Z,17.9
2018-09-26T01:00:33.333Z,17.9
2018-09-26T01:01:22.142Z,17.9
2018-09-26T01:02:11.942Z,17.9
2018-09-26T01:03:01.692Z,17.9
2018-09-26T01:03:51.777Z,17.9
2018-09-26T01:04:41.516Z,17.9
2018-09-26T01:05:33.099Z,17.9
2018-09-26T01:06:21.414Z,17.9
2018-09-26T01:07:11.782Z,17.8
2018-09-26T01:08:02.623Z,17.9
2018-09-26T01:08:52.121Z,17.8
2018-09-26T01:09:42.224Z,17.8
2018-09-26T01:10:32.234Z,17.8
2018-09-26T01:11:22.889Z,17.8
2018-09-26T01:12:12.499Z,17.9
2018-09-26T01:13:02.208Z,17.8
2018-09-26T01:13:52.709Z,17.8
2018-09-26T01:14:42.903Z,17.8
2018-09-26T01:15:32.286Z,17.8
2018-09-26T01:16:23.837Z,17.8
2018-09-26T01:17:13.078Z,17.8
2018-09-26T01:18:03.104Z,17.8
2018-09-26T01:18:53.193Z,17.8
2018-09-26T01:19:43.480Z,17.8
2018-09-26T01:20:33.463Z,17.8
2018-09-26T01:21:22.821Z,17.8
2018-09-26T01:22:13.684Z,17.8
2018-09-26T01:23:03.203Z,17.8
2018-09-26T01:23:53.213Z,17.8
2018-09-26T01:24:43.816Z,17.8
2018-09-26T01:25:34.286Z,17.8
2018-09-26T01:26:23.501Z,17.8
2018-09-26T01:27:13.663Z,17.8
2018-09-26T01:28:03.653Z,17.8
2018-09-26T01:28:53.567Z,17.8
2018-09-26T01:29:44.498Z,17.8
2018-09-26T01:30:33.455Z,17.8
2018-09-26T01:31:24.970Z,17.8
2018-09-26T01:32:14.045Z,17.8
2018-09-26T01:33:03.357Z,17.8
2018-09-26T01:33:54.282Z,17.8
2018-09-26T01:34:44.269Z,17.8
2018-09-26T01:35:34.637Z,17.8
2018-09-26T01:36:24.980Z,17.8
2018-09-26T01:37:14.845Z,17.8
2018-09-26T01:38:04.025Z,17.8
2018-09-26T01:38:54.340Z,17.8
2018-09-26T01:39:44.715Z,17.8
2018-09-26T01:40:33.920Z,17.8
2018-09-26T01:41:25.152Z,17.8
2018-09-26T01:42:15.178Z,17.8
2018-09-26T01:43:05.491Z,17.8
2018-09-26T01:43:54.159Z,17.8
2018-09-26T01:44:43.938Z,17.8
2018-09-26T01:45:34.811Z,17.8
2018-09-26T01:46:24.443Z,17.8
2018-09-26T01:47:15.494Z,17.8
2018-09-26T01:48:04.539Z,17.8
2018-09-26T01:48:55.095Z,17.8
2018-09-26T01:49:45.132Z,17.8
2018-09-26T01:50:35.457Z,17.7
2018-09-26T01:51:25.616Z,17.8
2018-09-26T01:52:15.539Z,17.8
2018-09-26T01:53:05.696Z,17.8
2018-09-26T01:53:55.423Z,17.8
2018-09-26T01:54:45.219Z,17.8
2018-09-26T01:55:36.201Z,17.8
2018-09-26T01:56:25.142Z,17.8
2018-09-26T01:57:16.564Z,17.8
2018-09-26T01:58:06.106Z,17.8
2018-09-26T01:58:56.409Z,17.7
2018-09-26T01:59:46.184Z,17.7
2018-09-26T02:00:35.633Z,17.8
2018-09-26T02:01:26.307Z,17.7
2018-09-26T02:02:16.146Z,17.7
2018-09-26T02:03:06.920Z,17.7
2018-09-26T02:03:56.483Z,17.8
2018-09-26T02:04:46.008Z,17.7
2018-09-26T02:05:36.068Z,17.8
2018-09-26T02:06:26.655Z,17.7
2018-09-26T02:07:16.673Z,17.7
2018-09-26T02:08:07.610Z,17.7
2018-09-26T02:08:56.033Z,17.7
2018-09-26T02:09:46.916Z,17.7
2018-09-26T02:10:37.041Z,17.7
2018-09-26T02:11:25.647Z,17.7
2018-09-26T02:12:17.068Z,17.7
2018-09-26T02:13:07.108Z,17.7
2018-09-26T02:13:57.950Z,17.7
2018-09-26T02:14:47.783Z,17.7
2018-09-26T02:15:37.640Z,17.7
2018-09-26T02:16:27.339Z,17.7
2018-09-26T02:17:17.721Z,17.7
2018-09-26T02:18:07.296Z,17.7
2018-09-26T02:18:56.534Z,17.7
2018-09-26T02:19:47.337Z,17.7
2018-09-26T02:20:37.192Z,17.7
2018-09-26T02:21:28.047Z,17.7
2018-09-26T02:22:18.095Z,17.6
2018-09-26T02:23:07.067Z,17.7
2018-09-26T02:23:58.248Z,17.7
2018-09-26T02:24:48.286Z,17.7
2018-09-26T02:25:37.767Z,17.6
2018-09-26T02:26:27.879Z,17.6
2018-09-26T02:27:17.908Z,17.6
2018-09-26T02:28:08.019Z,17.6
2018-09-26T02:28:59.243Z,17.7
2018-09-26T02:29:48.643Z,17.7
2018-09-26T02:30:38.236Z,17.6
2018-09-26T02:31:27.730Z,17.6
2018-09-26T02:32:18.011Z,17.7
2018-09-26T02:33:08.712Z,17.6
2018-09-26T02:33:59.059Z,17.6
2018-09-26T02:34:48.469Z,17.6
2018-09-26T02:35:39.369Z,17.6
2018-09-26T02:36:28.867Z,17.6
2018-09-26T02:37:19.530Z,17.6
2018-09-26T02:38:09.474Z,17.6
2018-09-26T02:38:59.298Z,17.6
2018-09-26T02:39:49.203Z,17.6
2018-09-26T02:40:38.931Z,17.6
2018-09-26T02:41:28.166Z,17.6
2018-09-26T02:42:18.718Z,17.6
2018-09-26T02:43:08.723Z,17.6
2018-09-26T02:43:59.814Z,17.6
2018-09-26T02:44:49.486Z,17.6
2018-09-26T02:45:39.888Z,17.6
2018-09-26T02:46:30.158Z,17.6
2018-09-26T02:47:19.710Z,17.6
2018-09-26T02:48:10.315Z,17.6
2018-09-26T02:49:00.368Z,17.6
2018-09-26T02:49:49.710Z,17.6
2018-09-26T02:50:39.950Z,17.6
2018-09-26T02:51:29.953Z,17.6
2018-09-26T02:52:19.770Z,17.6
2018-09-26T02:53:10.887Z,17.6
2018-09-26T02:54:00.413Z,17.6
2018-09-26T02:54:49.380Z,17.6
2018-09-26T02:55:40.658Z,17.6
2018-09-26T02:56:29.560Z,17.6
2018-09-26T02:57:20.722Z,17.6
2018-09-26T02:58:09.723Z,17.6
2018-09-26T02:59:00.267Z,17.6
2018-09-26T02:59:50.384Z,17.6
2018-09-26T03:00:41.014Z,17.6
2018-09-26T03:01:30.147Z,17.6
2018-09-26T03:02:21.112Z,17.6
2018-09-26T03:03:10.267Z,17.6
2018-09-26T03:04:01.821Z,17.6
2018-09-26T03:04:50.696Z,17.6
2018-09-26T03:05:41.100Z,17.6
2018-09-26T03:06:30.279Z,17.6
2018-09-26T03:07:20.044Z,17.6
2018-09-26T03:08:10.689Z,17.6
2018-09-26T03:09:01.323Z,17.6
2018-09-26T03:09:51.037Z,17.6
2018-09-26T03:10:40.340Z,17.6
2018-09-26T03:11:30.927Z,17.6
2018-09-26T03:12:20.352Z,17.6
2018-09-26T03:13:11.046Z,17.6
2018-09-26T03:14:02.820Z,17.6
2018-09-26T03:14:52.029Z,17.6
2018-09-26T03:15:42.459Z,17.6
2018-09-26T03:16:30.731Z,17.6
2018-09-26T03:17:21.354Z,17.6
2018-09-26T03:18:11.936Z,17.6
2018-09-26T03:19:02.089Z,17.6
2018-09-26T03:19:51.931Z,17.6
2018-09-26T03:20:41.576Z,17.6
2018-09-26T03:21:31.917Z,17.6
2018-09-26T03:22:22.559Z,17.6
2018-09-26T03:23:11.486Z,17.6
2018-09-26T03:24:02.972Z,17.6
2018-09-26T03:24:52.914Z,17.6
2018-09-26T03:25:43.386Z,17.6
2018-09-26T03:26:32.316Z,17.6
2018-09-26T03:27:22.914Z,17.6
2018-09-26T03:28:12.946Z,17.6
2018-09-26T03:29:01.751Z,17.6
2018-09-26T03:29:52.360Z,17.6
2018-09-26T03:30:42.570Z,17.6
2018-09-26T03:31:31.926Z,17.6
2018-09-26T03:32:22.362Z,17.6
2018-09-26T03:33:12.049Z,17.6
2018-09-26T03:34:02.615Z,17.6
2018-09-26T03:34:52.686Z,17.6
2018-09-26T03:35:43.540Z,17.6
2018-09-26T03:36:33.869Z,17.6
2018-09-26T03:37:23.392Z,17.6
2018-09-26T03:38:12.621Z,17.6
2018-09-26T03:39:03.525Z,17.6
2018-09-26T03:39:53.232Z,17.5
2018-09-26T03:40:43.645Z,17.6
2018-09-26T03:41:34.255Z,17.6
2018-09-26T03:42:23.182Z,17.6
2018-09-26T03:43:13.504Z,17.5
2018-09-26T03:44:04.416Z,17.6
2018-09-26T03:44:53.369Z,17.6
2018-09-26T03:45:43.443Z,17.6
2018-09-26T03:46:34.389Z,17.5
2018-09-26T03:47:24.422Z,17.5
2018-09-26T03:48:14.405Z,17.5
2018-09-26T03:49:03.971Z,17.5
2018-09-26T03:49:53.479Z,17.5
2018-09-26T03:50:44.352Z,17.5
2018-09-26T03:51:34.391Z,17.5
2018-09-26T03:52:24.214Z,17.5
2018-09-26T03:53:13.724Z,17.5
2018-09-26T03:54:03.752Z,17.5
2018-09-26T03:54:54.049Z,17.5
2018-09-26T03:55:44.921Z,17.5
2018-09-26T03:56:34.834Z,17.5
2018-09-26T03:57:25.148Z,17.5
2018-09-26T03:58:15.221Z,17.5
2018-09-26T03:59:05.298Z,17.5
2018-09-26T03:59:54.139Z,17.5
2018-09-26T04:00:44.554Z,17.5
2018-09-26T04:01:35.702Z,17.5
2018-09-26T04:02:25.299Z,17.5
2018-09-26T04:03:15.331Z,17.5
2018-09-26T04:04:05.996Z,17.5
2018-09-26T04:04:55.952Z,17.5
2018-09-26T04:05:46.009Z,17.5
2018-09-26T04:06:35.592Z,17.5
2018-09-26T04:07:25.823Z,17.5
2018-09-26T04:08:15.320Z,17.5
2018-09-26T04:09:05.503Z,17.5
2018-09-26T04:09:55.768Z,17.5
2018-09-26T04:10:44.840Z,17.5
2018-09-26T04:11:34.268Z,17.5
2018-09-26T04:12:25.468Z,17.5
2018-09-26T04:13:16.678Z,17.5
2018-09-26T04:14:05.860Z,17.4
2018-09-26T04:14:55.856Z,17.5
2018-09-26T04:15:48.190Z,17.4
2018-09-26T04:16:36.003Z,17.5
2018-09-26T04:17:26.112Z,17.4
2018-09-26T04:18:16.118Z,17.4
2018-09-26T04:19:06.190Z,17.4
2018-09-26T04:19:55.408Z,17.4
2018-09-26T04:20:46.367Z,17.4
2018-09-26T04:21:36.076Z,17.4
2018-09-26T04:22:26.750Z,17.4
2018-09-26T04:23:16.700Z,17.4
2018-09-26T04:24:06.569Z,17.4
2018-09-26T04:24:56.033Z,17.4
2018-09-26T04:25:47.247Z,17.4
2018-09-26T04:26:40.498Z,17.4
2018-09-26T04:27:29.735Z,17.4
2018-09-26T04:28:16.623Z,17.4
2018-09-26T04:29:07.403Z,17.4
2018-09-26T04:29:58.260Z,17.4
2018-09-26T04:30:48.024Z,17.4
2018-09-26T04:31:38.219Z,17.4
2018-09-26T04:32:27.605Z,17.4
2018-09-26T04:33:23.735Z,17.4
2018-09-26T04:34:08.313Z,17.4
2018-09-26T04:34:57.393Z,17.4
2018-09-26T04:35:47.995Z,17.4
2018-09-26T04:36:38.481Z,17.4
2018-09-26T04:37:28.487Z,17.4
2018-09-26T04:38:17.239Z,17.4
2018-09-26T04:39:07.416Z,17.4
2018-09-26T04:39:58.209Z,17.4
2018-09-26T04:40:46.402Z,17.4
2018-09-26T04:41:38.669Z,17.4
2018-09-26T04:42:28.216Z,17.4
2018-09-26T04:43:19.828Z,17.4
2018-09-26T04:44:07.981Z,17.4
2018-09-26T04:44:58.069Z,17.4
2018-09-26T04:45:47.792Z,17.4
2018-09-26T04:46:39.168Z,17.4
2018-09-26T04:47:28.523Z,17.4
2018-09-26T04:48:18.813Z,17.4
2018-09-26T04:49:08.648Z,17.4
2018-09-26T04:49:59.005Z,17.4
2018-09-26T04:50:48.763Z,17.4
2018-09-26T04:51:38.231Z,17.4
2018-09-26T04:52:28.583Z,17.4
2018-09-26T04:53:18.865Z,17.4
2018-09-26T04:54:09.688Z,17.4
2018-09-26T04:54:58.598Z,17.4
2018-09-26T04:55:48.863Z,17.4
2018-09-26T04:56:38.965Z,17.4
2018-09-26T04:57:29.514Z,17.4
2018-09-26T04:58:19.649Z,17.4
2018-09-26T04:59:08.633Z,17.4
2018-09-26T04:59:58.535Z,17.4
2018-09-26T05:00:48.836Z,17.4
2018-09-26T05:01:39.243Z,17.3
2018-09-26T05:02:29.187Z,17.4
2018-09-26T05:03:19.457Z,17.3
2018-09-26T05:04:08.905Z,17.3
2018-09-26T05:04:59.068Z,17.3
2018-09-26T05:05:49.165Z,17.3
2018-09-26T05:06:39.118Z,17.3
2018-09-26T05:07:30.325Z,17.3
2018-09-26T05:24:21.928Z,17.3
2018-09-26T05:25:11.499Z,17.3
2018-09-26T05:26:01.443Z,17.3
2018-09-26T05:26:51.677Z,17.3
2018-09-26T05:27:42.050Z,17.3
2018-09-26T05:28:31.561Z,17.3
2018-09-26T05:29:21.456Z,17.3
2018-09-26T05:30:11.689Z,17.3
2018-09-26T05:31:01.407Z,17.3
2018-09-26T05:31:52.034Z,17.3
2018-09-26T05:32:41.832Z,17.3
2018-09-26T05:33:31.629Z,17.3
2018-09-26T05:34:22.257Z,17.3
2018-09-26T05:35:12.541Z,17.3
2018-09-26T05:36:01.960Z,17.3
2018-09-26T05:36:52.701Z,17.3
2018-09-26T05:37:43.019Z,17.3
2018-09-26T05:38:32.251Z,17.3
2018-09-26T05:39:22.287Z,17.3
2018-09-26T05:40:12.931Z,17.3
2018-09-26T05:41:01.810Z,17.3
2018-09-26T05:41:54.646Z,17.3
2018-09-26T05:42:43.030Z,17.3
2018-09-26T05:43:33.420Z,17.3
2018-09-26T05:44:22.722Z,17.3
2018-09-26T05:45:13.596Z,17.3
2018-09-26T05:46:03.669Z,17.3
2018-09-26T05:46:53.282Z,17.3
2018-09-26T05:47:43.858Z,17.3
2018-09-26T05:48:33.012Z,17.3
2018-09-26T05:49:23.972Z,17.3
2018-09-26T05:50:13.598Z,17.3
2018-09-26T05:51:04.028Z,17.3
2018-09-26T05:51:53.224Z,17.3
2018-09-26T05:52:44.350Z,17.3
2018-09-26T05:53:34.272Z,17.3
2018-09-26T05:54:23.409Z,17.3
2018-09-26T05:55:14.237Z,17.3
2018-09-26T05:56:03.694Z,17.3
2018-09-26T05:56:53.322Z,17.3
2018-09-26T05:57:43.644Z,17.3
2018-09-26T05:58:32.927Z,17.3
2018-09-26T05:59:24.399Z,17.3
2018-09-26T06:00:14.742Z,17.3
2018-09-26T06:01:05.822Z,17.3
2018-09-26T06:01:56.003Z,17.3
2018-09-26T06:02:44.366Z,17.3
2018-09-26T06:03:33.535Z,17.3
2018-09-26T06:04:24.931Z,17.3
2018-09-26T06:05:14.053Z,17.3
2018-09-26T06:06:05.089Z,17.3
2018-09-26T06:06:54.183Z,17.3
2018-09-26T06:07:43.871Z,17.3
2018-09-26T06:08:33.146Z,17.3
2018-09-26T06:09:24.849Z,17.3
2018-09-26T06:10:15.163Z,17.3
2018-09-26T06:11:04.989Z,17.3
2018-09-26T06:11:54.387Z,17.3
2018-09-26T06:12:46.306Z,17.3
2018-09-26T06:13:35.694Z,17.3
2018-09-26T06:14:24.992Z,17.3
2018-09-26T06:15:15.757Z,17.3
2018-09-26T06:16:05.986Z,17.3
2018-09-26T06:16:56.486Z,17.3
2018-09-26T06:17:45.311Z,17.3
2018-09-26T06:18:36.058Z,17.3
2018-09-26T06:19:25.261Z,17.3
2018-09-26T06:20:14.758Z,17.3
2018-09-26T06:21:04.771Z,17.3
2018-09-26T06:21:55.934Z,17.3
2018-09-26T06:22:45.532Z,17.3
2018-09-26T06:23:36.030Z,17.3
2018-09-26T06:24:25.375Z,17.3
2018-09-26T06:25:15.529Z,17.3
2018-09-26T06:26:05.910Z,17.3
2018-09-26T06:26:55.383Z,17.3
2018-09-26T06:27:46.510Z,17.3
2018-09-26T06:28:34.293Z,17.3
2018-09-26T06:29:26.307Z,17.3
2018-09-26T06:30:16.169Z,17.3
2018-09-26T06:31:06.220Z,17.3
2018-09-26T06:31:55.394Z,17.3
2018-09-26T06:32:45.950Z,17.3
2018-09-26T06:33:36.848Z,17.3
2018-09-26T06:34:26.157Z,17.3
2018-09-26T06:35:16.623Z,17.3
2018-09-26T06:36:07.312Z,17.3
2018-09-26T06:36:56.289Z,17.3
2018-09-26T06:37:47.107Z,17.3
2018-09-26T06:38:36.651Z,17.3
2018-09-26T06:39:27.353Z,17.3
2018-09-26T06:40:17.821Z,17.3
2018-09-26T06:41:05.742Z,17.3
2018-09-26T06:41:56.932Z,17.3
2018-09-26T06:42:46.764Z,17.3
2018-09-26T06:43:37.574Z,17.3
2018-09-26T06:44:26.876Z,17.3
2018-09-26T06:45:18.144Z,17.3
2018-09-26T06:46:07.639Z,17.3
2018-09-26T06:46:57.579Z,17.3
2018-09-26T06:47:48.011Z,17.3
2018-09-26T06:48:36.828Z,17.3
2018-09-26T06:49:27.983Z,17.3
2018-09-26T06:50:17.799Z,17.3
2018-09-26T06:51:07.822Z,17.3
2018-09-26T06:51:57.735Z,17.3
2018-09-26T06:52:48.310Z,17.3
2018-09-26T06:53:38.542Z,17.3
2018-09-26T06:54:28.626Z,17.3
2018-09-26T06:55:18.631Z,17.3
2018-09-26T06:56:08.188Z,17.3
2018-09-26T06:56:57.863Z,17.3
2018-09-26T06:57:48.370Z,17.3
2018-09-26T06:58:38.636Z,17.3
2018-09-26T06:59:28.508Z,17.3
2018-09-26T07:00:20.477Z,17.3
2018-09-26T07:01:08.572Z,17.3
2018-09-26T07:01:58.859Z,17.3
2018-09-26T07:02:48.733Z,17.3
2018-09-26T07:03:38.698Z,17.3
2018-09-26T07:04:29.013Z,17.3
2018-09-26T07:05:19.198Z,17.3
2018-09-26T07:06:08.925Z,17.3
2018-09-26T07:06:59.257Z,17.3
2018-09-26T07:07:49.250Z,17.3
2018-09-26T07:08:38.822Z,17.3
2018-09-26T07:09:29.373Z,17.3
2018-09-26T07:10:19.005Z,17.3
2018-09-26T07:11:10.065Z,17.4
2018-09-26T07:11:58.787Z,17.4
2018-09-26T07:12:49.078Z,17.4
2018-09-26T07:13:40.050Z,17.3
2018-09-26T07:14:29.778Z,17.4
2018-09-26T07:15:20.469Z,17.4
2018-09-26T07:16:10.156Z,17.4
2018-09-26T07:16:58.682Z,17.4
2018-09-26T07:17:50.592Z,17.4
2018-09-26T07:18:40.379Z,17.4
2018-09-26T07:19:29.659Z,17.4
2018-09-26T07:20:20.244Z,17.4
2018-09-26T07:21:10.604Z,17.4
2018-09-26T07:21:59.812Z,17.4
2018-09-26T07:22:49.876Z,17.4
2018-09-26T07:23:40.242Z,17.4
2018-09-26T07:24:30.034Z,17.4
2018-09-26T07:25:20.868Z,17.4
2018-09-26T07:26:09.817Z,17.4
2018-09-26T07:27:00.296Z,17.4
2018-09-26T07:27:51.068Z,17.4
2018-09-26T07:28:40.317Z,17.4
2018-09-26T07:29:31.088Z,17.4
2018-09-26T07:30:20.889Z,17.4
2018-09-26T07:31:11.296Z,17.4
2018-09-26T07:32:00.831Z,17.4
2018-09-26T07:32:51.486Z,17.4
2018-09-26T07:33:40.651Z,17.4
2018-09-26T07:34:31.549Z,17.4
2018-09-26T07:35:21.046Z,17.4
2018-09-26T07:36:11.162Z,17.4
2018-09-26T07:37:01.724Z,17.4
2018-09-26T07:37:51.508Z,17.4
2018-09-26T07:38:42.421Z,17.4
2018-09-26T07:39:31.854Z,17.4
2018-09-26T07:40:21.758Z,17.4
2018-09-26T07:41:11.158Z,17.4
2018-09-26T07:42:01.836Z,17.4
2018-09-26T07:42:49.400Z,17.4
2018-09-26T07:43:41.733Z,17.4
2018-09-26T07:44:30.898Z,17.4
2018-09-26T07:45:21.274Z,17.4
2018-09-26T07:46:09.923Z,17.4
2018-09-26T07:47:01.241Z,17.4
2018-09-26T07:47:50.631Z,17.4
2018-09-26T07:48:40.925Z,17.4
2018-09-26T07:49:30.818Z,17.4
2018-09-26T07:50:20.873Z,17.4
2018-09-26T07:51:10.435Z,17.4
2018-09-26T07:52:00.575Z,17.4
2018-09-26T07:52:50.758Z,17.4
2018-09-26T07:53:40.713Z,17.4
2018-09-26T07:54:31.318Z,17.4
2018-09-26T07:55:21.608Z,17.4
2018-09-26T07:56:10.978Z,17.4
2018-09-26T07:57:01.074Z,17.5
2018-09-26T07:57:51.688Z,17.5
2018-09-26T07:58:41.535Z,17.4
2018-09-26T07:59:32.905Z,17.4
2018-09-26T08:00:22.931Z,17.4
2018-09-26T08:01:13.533Z,17.5
2018-09-26T08:02:02.462Z,17.4
2018-09-26T08:02:52.906Z,17.5
2018-09-26T08:03:42.276Z,17.5
2018-09-26T08:04:34.103Z,17.5
2018-09-26T08:05:22.122Z,17.5
2018-09-26T08:06:13.760Z,17.4
2018-09-26T08:07:02.817Z,17.4
2018-09-26T08:07:53.245Z,17.5
2018-09-26T08:08:43.036Z,17.5
2018-09-26T08:09:32.562Z,17.5
2018-09-26T08:10:23.127Z,17.4
2018-09-26T08:11:14.228Z,17.5
2018-09-26T08:12:04.477Z,17.5
2018-09-26T08:12:54.107Z,17.5
2018-09-26T08:13:44.158Z,17.5
2018-09-26T08:14:34.473Z,17.5
2018-09-26T08:15:23.543Z,17.5
2018-09-26T08:16:14.071Z,17.4
2018-09-26T08:17:03.639Z,17.5
2018-09-26T08:17:53.889Z,17.5
2018-09-26T08:18:46.649Z,17.5
2018-09-26T08:19:33.479Z,17.5
2018-09-26T08:20:24.372Z,17.5
2018-09-26T08:21:13.967Z,17.5
2018-09-26T08:22:04.632Z,17.5
2018-09-26T08:22:54.669Z,17.5
2018-09-26T08:23:45.636Z,17.5
2018-09-26T08:24:35.797Z,17.5
2018-09-26T08:25:23.903Z,17.5
2018-09-26T08:26:13.731Z,17.5
2018-09-26T08:27:05.674Z,17.5
2018-09-26T08:27:54.663Z,17.6
2018-09-26T08:28:44.961Z,17.5
2018-09-26T08:29:34.812Z,17.5
2018-09-26T08:30:24.896Z,17.5
2018-09-26T08:31:15.191Z,17.5
2018-09-26T08:32:05.218Z,17.5
2018-09-26T08:32:55.270Z,17.6
2018-09-26T08:33:44.823Z,17.5
2018-09-26T08:34:35.791Z,17.5
2018-09-26T08:35:26.251Z,17.5
2018-09-26T08:36:15.323Z,17.6
2018-09-26T08:37:06.114Z,17.6
2018-09-26T08:37:54.615Z,17.5
2018-09-26T08:38:45.310Z,17.5
2018-09-26T08:39:36.822Z,17.6
2018-09-26T08:40:26.385Z,17.6
2018-09-26T08:41:16.732Z,17.6
2018-09-26T08:42:06.267Z,17.6
2018-09-26T08:42:55.529Z,17.5
2018-09-26T08:43:46.020Z,17.6
2018-09-26T08:44:36.394Z,17.6
2018-09-26T08:45:26.767Z,17.6
2018-09-26T08:46:16.504Z,17.6
2018-09-26T08:47:06.614Z,17.6
2018-09-26T08:47:56.123Z,17.6
2018-09-26T08:48:47.289Z,17.6
2018-09-26T08:49:37.219Z,17.6
2018-09-26T08:50:27.258Z,17.6
2018-09-26T08:51:16.298Z,17.6
2018-09-26T08:52:06.234Z,17.6
2018-09-26T08:52:57.374Z,17.6
2018-09-26T08:53:48.922Z,17.6
2018-09-26T08:54:37.705Z,17.6
2018-09-26T08:55:27.244Z,17.6
2018-09-26T08:56:17.805Z,17.6
2018-09-26T08:57:06.871Z,17.6
2018-09-26T08:57:57.138Z,17.6
2018-09-26T08:58:47.163Z,17.6
2018-09-26T08:59:38.702Z,17.6
2018-09-26T09:00:27.483Z,17.6
2018-09-26T09:01:16.614Z,17.6
2018-09-26T09:02:07.396Z,17.6
2018-09-26T09:02:56.781Z,17.6
2018-09-26T09:03:48.075Z,17.6
2018-09-26T09:04:38.251Z,17.6
2018-09-26T09:05:28.179Z,17.6
2018-09-26T09:06:20.339Z,17.6
2018-09-26T09:07:07.803Z,17.6
2018-09-26T09:07:58.685Z,17.6
2018-09-26T09:08:48.246Z,17.6
2018-09-26T09:09:38.933Z,17.6
2018-09-26T09:10:28.605Z,17.6
2018-09-26T09:11:18.708Z,17.6
2018-09-26T09:12:08.135Z,17.6
2018-09-26T09:12:58.246Z,17.6
2018-09-26T09:13:48.787Z,17.6
2018-09-26T09:14:42.324Z,17.6
2018-09-26T09:15:29.418Z,17.6
2018-09-26T09:16:17.762Z,17.6
2018-09-26T09:17:08.419Z,17.6
2018-09-26T09:17:59.323Z,17.6
2018-09-26T09:18:49.035Z,17.6
2018-09-26T09:19:38.830Z,17.6
2018-09-26T09:20:29.530Z,17.6
2018-09-26T09:21:18.821Z,17.6
2018-09-26T09:22:08.605Z,17.6
2018-09-26T09:38:57.201Z,17.6
2018-09-26T09:39:46.917Z,17.7
2018-09-26T09:40:36.661Z,17.7
2018-09-26T09:41:25.890Z,17.7
2018-09-26T09:42:16.114Z,17.7
2018-09-26T09:43:06.581Z,17.7
2018-09-26T09:43:58.485Z,17.7
2018-09-26T09:44:47.265Z,17.7
2018-09-26T09:45:36.962Z,17.7
2018-09-26T09:46:26.808Z,17.6
2018-09-26T09:47:16.653Z,17.7
2018-09-26T09:48:07.196Z,17.7
2018-09-26T09:48:57.978Z,17.7
2018-09-26T09:49:47.208Z,17.7
2018-09-26T09:50:37.406Z,17.7
2018-09-26T09:51:28.189Z,17.7
2018-09-26T09:52:16.878Z,17.7
2018-09-26T09:53:07.601Z,17.7
2018-09-26T09:53:57.561Z,17.7
2018-09-26T09:54:47.683Z,17.7
2018-09-26T09:55:37.972Z,17.7
2018-09-26T09:56:28.756Z,17.7
2018-09-26T09:57:17.558Z,17.7
2018-09-26T09:58:07.686Z,17.7
2018-09-26T09:58:57.990Z,17.7
2018-09-26T09:59:48.081Z,17.7
2018-09-26T10:00:37.558Z,17.7
2018-09-26T10:01:28.803Z,17.7
2018-09-26T10:02:20.218Z,17.7
2018-09-26T10:03:10.860Z,17.7
2018-09-26T10:03:59.659Z,17.7
2018-09-26T10:04:48.364Z,17.7
2018-09-26T10:05:38.148Z,17.7
2018-09-26T10:06:28.222Z,17.7
2018-09-26T10:07:18.867Z,17.7
2018-09-26T10:08:08.643Z,17.7
2018-09-26T10:08:59.643Z,17.7
2018-09-26T10:09:48.832Z,17.7
2018-09-26T10:10:38.259Z,17.7
2018-09-26T10:11:29.162Z,17.7
2018-09-26T10:12:18.965Z,17.7
2018-09-26T10:13:08.962Z,17.8
2018-09-26T10:13:58.279Z,17.8
2018-09-26T10:14:49.397Z,17.8
2018-09-26T10:15:40.087Z,17.8
2018-09-26T10:16:29.544Z,17.8
2018-09-26T10:17:18.774Z,17.7
2018-09-26T10:18:09.354Z,17.8
2018-09-26T10:18:58.887Z,17.8
2018-09-26T10:19:49.279Z,17.8
2018-09-26T10:20:39.551Z,17.7
2018-09-26T10:21:29.753Z,17.8
2018-09-26T10:22:19.740Z,17.8
2018-09-26T10:23:09.194Z,17.8
2018-09-26T10:23:59.822Z,17.8
2018-09-26T10:24:50.473Z,17.8
2018-09-26T10:25:40.481Z,17.8
2018-09-26T10:26:31.496Z,17.8
2018-09-26T10:27:20.644Z,17.8
2018-09-26T10:28:09.889Z,17.8
2018-09-26T10:28:59.912Z,17.8
2018-09-26T10:29:50.371Z,17.8
2018-09-26T10:30:39.877Z,17.8
2018-09-26T10:31:31.143Z,17.8
2018-09-26T10:32:20.719Z,17.8
2018-09-26T10:33:11.129Z,17.8
2018-09-26T10:34:01.175Z,17.8
2018-09-26T10:34:50.130Z,17.8
2018-09-26T10:35:41.361Z,17.8
2018-09-26T10:36:31.360Z,17.8
2018-09-26T10:37:20.916Z,17.8
2018-09-26T10:38:11.645Z,17.8
2018-09-26T10:39:01.443Z,17.8
2018-09-26T10:39:50.860Z,17.8
2018-09-26T10:40:41.190Z,17.8
2018-09-26T10:41:31.130Z,17.8
2018-09-26T10:42:20.591Z,17.8
2018-09-26T10:43:10.990Z,17.8
2018-09-26T10:44:01.618Z,17.8
2018-09-26T10:44:52.220Z,17.8
2018-09-26T10:45:41.715Z,17.8
2018-09-26T10:46:32.523Z,17.8
2018-09-26T10:47:21.562Z,17.8
2018-09-26T10:48:11.323Z,17.8
2018-09-26T10:49:01.788Z,17.8
2018-09-26T10:49:51.942Z,17.8
2018-09-26T10:50:42.083Z,17.8
2018-09-26T10:51:32.407Z,17.8
2018-09-26T10:52:22.163Z,17.8
2018-09-26T10:53:11.522Z,17.8
2018-09-26T10:54:01.157Z,17.8
2018-09-26T10:54:52.032Z,17.8
2018-09-26T10:55:42.368Z,17.8
2018-09-26T10:56:33.957Z,17.8
2018-09-26T10:57:21.811Z,17.8
2018-09-26T10:58:12.802Z,17.8
2018-09-26T10:59:02.590Z,17.8
2018-09-26T10:59:52.427Z,17.8
2018-09-26T11:00:43.271Z,17.8
2018-09-26T11:01:33.147Z,17.8
2018-09-26T11:02:23.746Z,17.8
2018-09-26T11:03:12.444Z,17.8
2018-09-26T11:04:02.720Z,17.8
2018-09-26T11:04:52.837Z,17.8
2018-09-26T11:05:42.637Z,17.8
2018-09-26T11:06:33.259Z,17.8
2018-09-26T11:07:22.617Z,17.8
2018-09-26T11:08:14.176Z,17.8
2018-09-26T11:09:02.599Z,17.8
2018-09-26T11:09:53.176Z,17.8
2018-09-26T11:10:43.046Z,17.8
2018-09-26T11:11:32.710Z,17.8
2018-09-26T11:12:24.122Z,17.8
2018-09-26T11:13:14.017Z,17.8
2018-09-26T11:14:02.598Z,17.8
2018-09-26T11:14:52.415Z,17.8
2018-09-26T11:15:44.273Z,17.8
2018-09-26T11:16:34.516Z,17.9
2018-09-26T11:17:23.667Z,17.8
2018-09-26T11:18:14.433Z,17.8
2018-09-26T11:19:05.449Z,17.8
2018-09-26T11:19:53.599Z,17.8
2018-09-26T11:20:45.198Z,17.8
2018-09-26T11:21:33.207Z,17.9
2018-09-26T11:22:25.444Z,17.8
2018-09-26T11:23:14.521Z,17.8
2018-09-26T11:24:04.514Z,17.9
2018-09-26T11:24:54.569Z,17.9
2018-09-26T11:25:44.369Z,17.8
2018-09-26T11:26:35.838Z,17.9
2018-09-26T11:27:24.807Z,17.8
2018-09-26T11:28:15.267Z,17.9
2018-09-26T11:29:04.629Z,17.9
2018-09-26T11:29:54.960Z,17.8
2018-09-26T11:30:44.992Z,17.8
2018-09-26T11:31:35.388Z,17.9
2018-09-26T11:32:27.877Z,17.8
2018-09-26T11:33:16.131Z,17.9
2018-09-26T11:34:05.744Z,17.8
2018-09-26T11:34:55.072Z,17.9
2018-09-26T11:35:43.990Z,17.9
2018-09-26T11:36:35.208Z,17.9
2018-09-26T11:37:25.468Z,17.9
2018-09-26T11:38:16.524Z,17.9
2018-09-26T11:39:05.862Z,17.9
2018-09-26T11:39:55.720Z,17.9
2018-09-26T11:40:45.740Z,17.9
2018-09-26T11:41:35.320Z,17.9
2018-09-26T11:42:25.445Z,17.9
2018-09-26T11:43:16.150Z,17.9
2018-09-26T11:44:06.332Z,17.9
2018-09-26T11:44:57.712Z,17.9
2018-09-26T11:45:46.090Z,17.9
2018-09-26T11:46:36.412Z,17.9
2018-09-26T11:47:24.607Z,17.9
2018-09-26T11:48:15.760Z,17.9
2018-09-26T11:49:06.034Z,17.9
2018-09-26T11:49:56.142Z,17.9
2018-09-26T11:50:45.789Z,17.9
2018-09-26T11:51:35.954Z,17.9
2018-09-26T11:52:26.858Z,17.9
2018-09-26T11:53:16.619Z,17.9
2018-09-26T11:54:07.489Z,17.9
2018-09-26T11:54:55.559Z,17.9
2018-09-26T11:55:45.398Z,17.9
2018-09-26T11:56:37.364Z,17.9
2018-09-26T11:57:25.149Z,17.9
2018-09-26T11:58:17.873Z,17.9